sensor_id;sensor_type;location;lat;lon;timestamp;P1;durP1;ratioP1;P2;durP2;ratioP2
57231;SDS011;43488;46.934;8.276;2023-06-10T00:02:28;1002.97;;;477.52;;
57231;SDS011;43488;46.934;8.276;2023-06-10T00:04:57;1001.70;;;480.13;;
57231;SDS011;43488;46.934;8.276;2023-06-10T00:07:24;993.45;;;494.63;;
57231;SDS011;43488;46.934;8.276;2023-06-10T00:09:52;990.60;;;513.78;;
57231;SDS011;43488;46.934;8.276;2023-06-10T00:12:23;946.03;;;473.65;;
57231;SDS011;43488;46.934;8.276;2023-06-10T00:14:51;944.22;;;468.55;;
57231;SDS011;43488;46.934;8.276;2023-06-10T00:17:20;905.88;;;464.27;;
57231;SDS011;43488;46.934;8.276;2023-06-10T00:19:50;930.05;;;456.80;;
57231;SDS011;43488;46.934;8.276;2023-06-10T00:22:18;967.85;;;491.98;;
57231;SDS011;43488;46.934;8.276;2023-06-10T00:24:45;895.42;;;459.83;;
57231;SDS011;43488;46.934;8.276;2023-06-10T00:27:14;883.13;;;457.90;;
57231;SDS011;43488;46.934;8.276;2023-06-10T00:29:41;783.65;;;372.35;;
57231;SDS011;43488;46.934;8.276;2023-06-10T00:32:08;885.50;;;448.00;;
57231;SDS011;43488;46.934;8.276;2023-06-10T00:34:36;848.20;;;376.38;;
57231;SDS011;43488;46.934;8.276;2023-06-10T00:37:04;895.55;;;449.15;;
57231;SDS011;43488;46.934;8.276;2023-06-10T00:39:31;898.40;;;461.38;;
57231;SDS011;43488;46.934;8.276;2023-06-10T00:41:58;903.40;;;453.17;;
57231;SDS011;43488;46.934;8.276;2023-06-10T00:44:26;866.38;;;386.77;;
57231;SDS011;43488;46.934;8.276;2023-06-10T00:46:53;826.28;;;444.33;;
57231;SDS011;43488;46.934;8.276;2023-06-10T00:49:22;799.28;;;370.67;;
57231;SDS011;43488;46.934;8.276;2023-06-10T00:51:49;770.22;;;351.83;;
57231;SDS011;43488;46.934;8.276;2023-06-10T00:54:19;796.40;;;376.67;;
57231;SDS011;43488;46.934;8.276;2023-06-10T00:56:47;799.92;;;365.55;;
57231;SDS011;43488;46.934;8.276;2023-06-10T00:59:16;835.15;;;449.13;;
57231;SDS011;43488;46.934;8.276;2023-06-10T01:01:43;777.47;;;362.25;;
57231;SDS011;43488;46.934;8.276;2023-06-10T01:04:13;915.33;;;455.55;;
57231;SDS011;43488;46.934;8.276;2023-06-10T01:06:58;901.25;;;395.00;;
57231;SDS011;43488;46.934;8.276;2023-06-10T01:15:03;898.50;;;398.05;;
57231;SDS011;43488;46.934;8.276;2023-06-10T01:17:31;903.35;;;401.65;;
57231;SDS011;43488;46.934;8.276;2023-06-10T01:20:00;912.90;;;410.70;;
57231;SDS011;43488;46.934;8.276;2023-06-10T01:22:29;909.80;;;397.20;;
57231;SDS011;43488;46.934;8.276;2023-06-10T01:24:58;947.85;;;465.13;;
57231;SDS011;43488;46.934;8.276;2023-06-10T01:27:32;905.35;;;396.10;;
57231;SDS011;43488;46.934;8.276;2023-06-10T01:30:08;926.70;;;419.63;;
57231;SDS011;43488;46.934;8.276;2023-06-10T01:32:45;923.33;;;413.95;;
57231;SDS011;43488;46.934;8.276;2023-06-10T01:35:18;967.10;;;479.45;;
57231;SDS011;43488;46.934;8.276;2023-06-10T01:37:52;973.53;;;482.33;;
57231;SDS011;43488;46.934;8.276;2023-06-10T01:40:23;915.72;;;402.23;;
57231;SDS011;43488;46.934;8.276;2023-06-10T01:42:52;964.72;;;474.33;;
57231;SDS011;43488;46.934;8.276;2023-06-10T01:45:19;965.70;;;476.27;;
57231;SDS011;43488;46.934;8.276;2023-06-10T01:47:46;966.40;;;478.55;;
57231;SDS011;43488;46.934;8.276;2023-06-10T01:50:13;977.70;;;490.42;;
57231;SDS011;43488;46.934;8.276;2023-06-10T01:52:42;977.80;;;483.58;;
57231;SDS011;43488;46.934;8.276;2023-06-10T01:55:10;932.25;;;425.00;;
57231;SDS011;43488;46.934;8.276;2023-06-10T01:57:37;982.65;;;488.08;;
57231;SDS011;43488;46.934;8.276;2023-06-10T02:00:04;933.75;;;431.08;;
57231;SDS011;43488;46.934;8.276;2023-06-10T02:02:32;923.20;;;412.75;;
57231;SDS011;43488;46.934;8.276;2023-06-10T02:05:00;923.53;;;412.15;;
57231;SDS011;43488;46.934;8.276;2023-06-10T02:07:27;931.83;;;422.85;;
57231;SDS011;43488;46.934;8.276;2023-06-10T02:09:55;937.83;;;435.98;;
57231;SDS011;43488;46.934;8.276;2023-06-10T02:12:23;938.28;;;425.48;;
57231;SDS011;43488;46.934;8.276;2023-06-10T02:14:50;935.60;;;435.98;;
57231;SDS011;43488;46.934;8.276;2023-06-10T02:17:17;819.63;;;383.08;;
57231;SDS011;43488;46.934;8.276;2023-06-10T02:19:45;855.17;;;444.70;;
57231;SDS011;43488;46.934;8.276;2023-06-10T02:22:20;775.95;;;362.48;;
57231;SDS011;43488;46.934;8.276;2023-06-10T02:24:49;830.65;;;441.35;;
57231;SDS011;43488;46.934;8.276;2023-06-10T02:27:18;787.00;;;356.02;;
57231;SDS011;43488;46.934;8.276;2023-06-10T02:29:45;780.80;;;356.92;;
57231;SDS011;43488;46.934;8.276;2023-06-10T02:32:13;797.00;;;427.30;;
57231;SDS011;43488;46.934;8.276;2023-06-10T02:34:40;839.10;;;431.50;;
57231;SDS011;43488;46.934;8.276;2023-06-10T02:37:09;807.33;;;361.58;;
57231;SDS011;43488;46.934;8.276;2023-06-10T02:39:36;842.30;;;443.60;;
57231;SDS011;43488;46.934;8.276;2023-06-10T02:42:07;822.80;;;358.70;;
57231;SDS011;43488;46.934;8.276;2023-06-10T02:44:35;876.97;;;438.73;;
57231;SDS011;43488;46.934;8.276;2023-06-10T02:47:02;830.53;;;360.50;;
57231;SDS011;43488;46.934;8.276;2023-06-10T02:49:29;872.40;;;443.85;;
57231;SDS011;43488;46.934;8.276;2023-06-10T02:51:57;918.03;;;419.33;;
57231;SDS011;43488;46.934;8.276;2023-06-10T02:54:25;967.05;;;488.40;;
57231;SDS011;43488;46.934;8.276;2023-06-10T02:56:53;915.92;;;417.45;;
57231;SDS011;43488;46.934;8.276;2023-06-10T02:59:22;915.40;;;419.50;;
57231;SDS011;43488;46.934;8.276;2023-06-10T03:01:49;973.65;;;493.65;;
57231;SDS011;43488;46.934;8.276;2023-06-10T03:04:17;919.22;;;426.17;;
57231;SDS011;43488;46.934;8.276;2023-06-10T03:06:44;888.80;;;384.27;;
57231;SDS011;43488;46.934;8.276;2023-06-10T03:09:12;877.80;;;387.40;;
57231;SDS011;43488;46.934;8.276;2023-06-10T03:11:40;946.53;;;459.55;;
57231;SDS011;43488;46.934;8.276;2023-06-10T03:14:08;945.42;;;467.70;;
57231;SDS011;43488;46.934;8.276;2023-06-10T03:16:38;949.53;;;465.67;;
57231;SDS011;43488;46.934;8.276;2023-06-10T03:19:08;899.63;;;402.45;;
57231;SDS011;43488;46.934;8.276;2023-06-10T03:21:36;950.88;;;466.05;;
57231;SDS011;43488;46.934;8.276;2023-06-10T03:24:03;907.92;;;402.20;;
57231;SDS011;43488;46.934;8.276;2023-06-10T03:26:33;956.17;;;474.63;;
57231;SDS011;43488;46.934;8.276;2023-06-10T03:29:01;958.15;;;476.52;;
57231;SDS011;43488;46.934;8.276;2023-06-10T03:31:29;956.05;;;470.42;;
57231;SDS011;43488;46.934;8.276;2023-06-10T03:33:57;956.75;;;473.98;;
57231;SDS011;43488;46.934;8.276;2023-06-10T03:36:24;906.38;;;403.48;;
57231;SDS011;43488;46.934;8.276;2023-06-10T03:38:55;913.40;;;420.42;;
57231;SDS011;43488;46.934;8.276;2023-06-10T03:41:23;959.05;;;469.92;;
57231;SDS011;43488;46.934;8.276;2023-06-10T03:43:52;916.55;;;415.20;;
57231;SDS011;43488;46.934;8.276;2023-06-10T03:46:19;958.67;;;474.23;;
57231;SDS011;43488;46.934;8.276;2023-06-10T03:48:46;912.17;;;413.95;;
57231;SDS011;43488;46.934;8.276;2023-06-10T03:51:14;964.10;;;476.27;;
57231;SDS011;43488;46.934;8.276;2023-06-10T03:53:43;969.92;;;487.65;;
57231;SDS011;43488;46.934;8.276;2023-06-10T03:56:10;920.47;;;419.25;;
57231;SDS011;43488;46.934;8.276;2023-06-10T03:58:38;970.13;;;492.10;;
57231;SDS011;43488;46.934;8.276;2023-06-10T04:01:05;967.30;;;478.35;;
57231;SDS011;43488;46.934;8.276;2023-06-10T04:03:35;972.45;;;497.25;;
57231;SDS011;43488;46.934;8.276;2023-06-10T04:06:03;925.88;;;426.17;;
57231;SDS011;43488;46.934;8.276;2023-06-10T04:08:32;970.38;;;491.98;;
57231;SDS011;43488;46.934;8.276;2023-06-10T04:10:59;924.67;;;421.40;;
57231;SDS011;43488;46.934;8.276;2023-06-10T04:13:27;919.88;;;424.88;;
57231;SDS011;43488;46.934;8.276;2023-06-10T04:15:54;971.92;;;495.08;;
57231;SDS011;43488;46.934;8.276;2023-06-10T04:18:22;970.75;;;496.45;;
57231;SDS011;43488;46.934;8.276;2023-06-10T04:20:49;929.95;;;426.95;;
57231;SDS011;43488;46.934;8.276;2023-06-10T04:23:19;970.95;;;492.75;;
57231;SDS011;43488;46.934;8.276;2023-06-10T04:25:46;933.03;;;441.17;;
57231;SDS011;43488;46.934;8.276;2023-06-10T04:28:14;973.20;;;499.98;;
57231;SDS011;43488;46.934;8.276;2023-06-10T04:30:42;934.88;;;437.90;;
57231;SDS011;43488;46.934;8.276;2023-06-10T04:33:11;975.28;;;500.13;;
57231;SDS011;43488;46.934;8.276;2023-06-10T04:35:39;975.95;;;492.58;;
57231;SDS011;43488;46.934;8.276;2023-06-10T04:38:07;975.25;;;505.10;;
57231;SDS011;43488;46.934;8.276;2023-06-10T04:40:35;978.08;;;494.23;;
57231;SDS011;43488;46.934;8.276;2023-06-10T04:43:03;973.60;;;495.75;;
57231;SDS011;43488;46.934;8.276;2023-06-10T04:45:30;970.80;;;497.95;;
57231;SDS011;43488;46.934;8.276;2023-06-10T04:47:57;930.97;;;448.33;;
57231;SDS011;43488;46.934;8.276;2023-06-10T04:50:25;978.78;;;497.55;;
57231;SDS011;43488;46.934;8.276;2023-06-10T04:52:52;922.35;;;433.52;;
57231;SDS011;43488;46.934;8.276;2023-06-10T04:55:19;972.92;;;495.10;;
57231;SDS011;43488;46.934;8.276;2023-06-10T04:57:48;928.28;;;441.35;;
57231;SDS011;43488;46.934;8.276;2023-06-10T05:00:16;972.25;;;484.55;;
57231;SDS011;43488;46.934;8.276;2023-06-10T05:02:45;974.75;;;503.77;;
57231;SDS011;43488;46.934;8.276;2023-06-10T05:05:16;923.90;;;433.25;;
57231;SDS011;43488;46.934;8.276;2023-06-10T05:07:44;935.17;;;465.85;;
57231;SDS011;43488;46.934;8.276;2023-06-10T05:10:13;929.38;;;438.02;;
57231;SDS011;43488;46.934;8.276;2023-06-10T05:12:40;975.85;;;505.42;;
57231;SDS011;43488;46.934;8.276;2023-06-10T05:15:07;931.50;;;447.27;;
57231;SDS011;43488;46.934;8.276;2023-06-10T05:17:35;973.53;;;507.48;;
57231;SDS011;43488;46.934;8.276;2023-06-10T05:20:03;976.92;;;499.98;;
57231;SDS011;43488;46.934;8.276;2023-06-10T05:22:31;975.13;;;506.13;;
57231;SDS011;43488;46.934;8.276;2023-06-10T05:24:59;977.80;;;513.80;;
57231;SDS011;43488;46.934;8.276;2023-06-10T05:27:26;978.47;;;514.33;;
57231;SDS011;43488;46.934;8.276;2023-06-10T05:29:53;927.22;;;447.17;;
57231;SDS011;43488;46.934;8.276;2023-06-10T05:32:21;976.47;;;506.45;;
57231;SDS011;43488;46.934;8.276;2023-06-10T05:34:48;977.58;;;510.75;;
57231;SDS011;43488;46.934;8.276;2023-06-10T05:37:15;927.70;;;449.17;;
57231;SDS011;43488;46.934;8.276;2023-06-10T05:39:43;987.92;;;512.33;;
57231;SDS011;43488;46.934;8.276;2023-06-10T05:42:10;979.40;;;510.95;;
57231;SDS011;43488;46.934;8.276;2023-06-10T05:44:37;982.28;;;512.92;;
57231;SDS011;43488;46.934;8.276;2023-06-10T05:47:05;978.33;;;513.65;;
57231;SDS011;43488;46.934;8.276;2023-06-10T05:49:32;931.97;;;448.52;;
57231;SDS011;43488;46.934;8.276;2023-06-10T05:51:59;924.30;;;441.95;;
57231;SDS011;43488;46.934;8.276;2023-06-10T05:54:26;982.28;;;514.53;;
57231;SDS011;43488;46.934;8.276;2023-06-10T05:56:54;927.28;;;467.05;;
57231;SDS011;43488;46.934;8.276;2023-06-10T05:59:21;975.63;;;500.77;;
57231;SDS011;43488;46.934;8.276;2023-06-10T06:01:49;935.28;;;461.80;;
57231;SDS011;43488;46.934;8.276;2023-06-10T06:04:16;928.60;;;461.05;;
57231;SDS011;43488;46.934;8.276;2023-06-10T06:06:43;933.88;;;479.63;;
57231;SDS011;43488;46.934;8.276;2023-06-10T06:09:11;938.38;;;455.10;;
57231;SDS011;43488;46.934;8.276;2023-06-10T06:11:39;927.47;;;450.48;;
57231;SDS011;43488;46.934;8.276;2023-06-10T06:14:06;979.05;;;512.97;;
57231;SDS011;43488;46.934;8.276;2023-06-10T06:16:33;983.83;;;514.92;;
57231;SDS011;43488;46.934;8.276;2023-06-10T06:19:01;979.47;;;503.83;;
57231;SDS011;43488;46.934;8.276;2023-06-10T06:21:28;928.65;;;459.55;;
57231;SDS011;43488;46.934;8.276;2023-06-10T06:23:55;939.47;;;466.30;;
57231;SDS011;43488;46.934;8.276;2023-06-10T06:26:22;982.25;;;519.70;;
57231;SDS011;43488;46.934;8.276;2023-06-10T06:28:50;932.05;;;457.13;;
57231;SDS011;43488;46.934;8.276;2023-06-10T06:31:17;980.50;;;506.33;;
57231;SDS011;43488;46.934;8.276;2023-06-10T06:33:45;987.92;;;521.85;;
57231;SDS011;43488;46.934;8.276;2023-06-10T06:36:12;986.13;;;522.13;;
57231;SDS011;43488;46.934;8.276;2023-06-10T06:38:39;945.80;;;461.23;;
57231;SDS011;43488;46.934;8.276;2023-06-10T06:41:06;929.15;;;462.38;;
57231;SDS011;43488;46.934;8.276;2023-06-10T06:43:34;985.38;;;518.95;;
57231;SDS011;43488;46.934;8.276;2023-06-10T06:46:01;980.42;;;520.05;;
57231;SDS011;43488;46.934;8.276;2023-06-10T06:48:28;942.90;;;458.48;;
57231;SDS011;43488;46.934;8.276;2023-06-10T06:50:55;929.30;;;466.05;;
57231;SDS011;43488;46.934;8.276;2023-06-10T06:53:25;938.58;;;491.13;;
57231;SDS011;43488;46.934;8.276;2023-06-10T06:55:52;947.15;;;467.23;;
57231;SDS011;43488;46.934;8.276;2023-06-10T06:58:19;929.30;;;454.17;;
57231;SDS011;43488;46.934;8.276;2023-06-10T07:00:47;984.50;;;522.20;;
57231;SDS011;43488;46.934;8.276;2023-06-10T07:03:14;932.60;;;452.20;;
57231;SDS011;43488;46.934;8.276;2023-06-10T07:05:42;985.08;;;530.47;;
57231;SDS011;43488;46.934;8.276;2023-06-10T07:08:09;923.65;;;451.55;;
57231;SDS011;43488;46.934;8.276;2023-06-10T07:10:38;982.45;;;515.60;;
57231;SDS011;43488;46.934;8.276;2023-06-10T07:13:05;929.15;;;471.05;;
57231;SDS011;43488;46.934;8.276;2023-06-10T07:15:32;990.30;;;534.42;;
57231;SDS011;43488;46.934;8.276;2023-06-10T07:18:00;988.00;;;521.47;;
57231;SDS011;43488;46.934;8.276;2023-06-10T07:20:27;985.08;;;521.33;;
57231;SDS011;43488;46.934;8.276;2023-06-10T07:22:55;928.65;;;467.88;;
57231;SDS011;43488;46.934;8.276;2023-06-10T07:25:22;990.70;;;522.83;;
57231;SDS011;43488;46.934;8.276;2023-06-10T07:27:49;989.78;;;520.83;;
57231;SDS011;43488;46.934;8.276;2023-06-10T07:30:17;934.08;;;470.70;;
57231;SDS011;43488;46.934;8.276;2023-06-10T07:32:44;989.20;;;554.55;;
57231;SDS011;43488;46.934;8.276;2023-06-10T07:35:11;937.47;;;480.27;;
57231;SDS011;43488;46.934;8.276;2023-06-10T07:37:40;987.47;;;523.00;;
57231;SDS011;43488;46.934;8.276;2023-06-10T07:40:07;987.10;;;535.83;;
57231;SDS011;43488;46.934;8.276;2023-06-10T07:42:35;984.95;;;516.10;;
57231;SDS011;43488;46.934;8.276;2023-06-10T07:45:03;928.75;;;473.50;;
57231;SDS011;43488;46.934;8.276;2023-06-10T07:47:32;926.53;;;461.10;;
57231;SDS011;43488;46.934;8.276;2023-06-10T07:50:00;926.75;;;462.50;;
57231;SDS011;43488;46.934;8.276;2023-06-10T07:52:28;973.33;;;513.05;;
57231;SDS011;43488;46.934;8.276;2023-06-10T07:54:55;930.30;;;472.77;;
57231;SDS011;43488;46.934;8.276;2023-06-10T07:57:22;969.95;;;500.85;;
57231;SDS011;43488;46.934;8.276;2023-06-10T07:59:50;916.92;;;451.83;;
57231;SDS011;43488;46.934;8.276;2023-06-10T08:02:18;908.33;;;445.33;;
57231;SDS011;43488;46.934;8.276;2023-06-10T08:04:45;916.33;;;461.45;;
57231;SDS011;43488;46.934;8.276;2023-06-10T08:07:12;818.80;;;394.15;;
57231;SDS011;43488;46.934;8.276;2023-06-10T08:09:40;750.42;;;378.00;;
57231;SDS011;43488;46.934;8.276;2023-06-10T08:12:07;796.97;;;439.33;;
57231;SDS011;43488;46.934;8.276;2023-06-10T08:14:34;775.33;;;378.15;;
57231;SDS011;43488;46.934;8.276;2023-06-10T08:17:03;793.55;;;368.45;;
57231;SDS011;43488;46.934;8.276;2023-06-10T08:19:32;795.45;;;375.90;;
57231;SDS011;43488;46.934;8.276;2023-06-10T08:21:59;838.85;;;438.10;;
57231;SDS011;43488;46.934;8.276;2023-06-10T08:24:26;804.92;;;388.15;;
57231;SDS011;43488;46.934;8.276;2023-06-10T08:26:54;810.85;;;380.55;;
57231;SDS011;43488;46.934;8.276;2023-06-10T08:29:23;809.88;;;460.25;;
57231;SDS011;43488;46.934;8.276;2023-06-10T08:31:50;772.42;;;385.85;;
57231;SDS011;43488;46.934;8.276;2023-06-10T08:34:18;760.25;;;382.15;;
57231;SDS011;43488;46.934;8.276;2023-06-10T08:36:45;807.78;;;442.40;;
57231;SDS011;43488;46.934;8.276;2023-06-10T08:39:13;871.40;;;455.65;;
57231;SDS011;43488;46.934;8.276;2023-06-10T08:41:42;840.63;;;457.17;;
57231;SDS011;43488;46.934;8.276;2023-06-10T08:44:17;771.60;;;387.70;;
57231;SDS011;43488;46.934;8.276;2023-06-10T08:46:59;785.97;;;438.55;;
57231;SDS011;43488;46.934;8.276;2023-06-10T08:49:27;793.85;;;478.90;;
57231;SDS011;43488;46.934;8.276;2023-06-10T08:52:00;756.90;;;465.23;;
57231;SDS011;43488;46.934;8.276;2023-06-10T08:54:31;763.97;;;450.27;;
57231;SDS011;43488;46.934;8.276;2023-06-10T08:57:05;766.45;;;435.67;;
57231;SDS011;43488;46.934;8.276;2023-06-10T08:59:33;769.03;;;381.02;;
57231;SDS011;43488;46.934;8.276;2023-06-10T09:02:01;802.03;;;451.23;;
57231;SDS011;43488;46.934;8.276;2023-06-10T09:04:30;770.10;;;386.02;;
57231;SDS011;43488;46.934;8.276;2023-06-10T09:06:58;780.70;;;436.98;;
57231;SDS011;43488;46.934;8.276;2023-06-10T09:09:26;829.03;;;447.27;;
57231;SDS011;43488;46.934;8.276;2023-06-10T09:11:57;776.35;;;381.20;;
57231;SDS011;43488;46.934;8.276;2023-06-10T09:14:25;788.33;;;382.45;;
57231;SDS011;43488;46.934;8.276;2023-06-10T09:16:52;785.28;;;390.08;;
57231;SDS011;43488;46.934;8.276;2023-06-10T09:19:23;800.77;;;383.73;;
57231;SDS011;43488;46.934;8.276;2023-06-10T09:21:53;836.85;;;443.20;;
57231;SDS011;43488;46.934;8.276;2023-06-10T09:24:22;829.95;;;456.58;;
57231;SDS011;43488;46.934;8.276;2023-06-10T09:26:50;833.15;;;451.23;;
57231;SDS011;43488;46.934;8.276;2023-06-10T09:29:28;821.53;;;444.33;;
57231;SDS011;43488;46.934;8.276;2023-06-10T09:31:56;807.28;;;454.00;;
57231;SDS011;43488;46.934;8.276;2023-06-10T09:34:24;858.25;;;453.92;;
57231;SDS011;43488;46.934;8.276;2023-06-10T09:36:53;819.40;;;449.38;;
57231;SDS011;43488;46.934;8.276;2023-06-10T09:39:20;773.75;;;452.50;;
57231;SDS011;43488;46.934;8.276;2023-06-10T09:41:47;816.35;;;453.77;;
57231;SDS011;43488;46.934;8.276;2023-06-10T09:44:16;904.83;;;469.48;;
57231;SDS011;43488;46.934;8.276;2023-06-10T09:46:48;860.47;;;409.70;;
57231;SDS011;43488;46.934;8.276;2023-06-10T09:49:21;803.40;;;454.20;;
57231;SDS011;43488;46.934;8.276;2023-06-10T09:51:52;828.47;;;466.52;;
57231;SDS011;43488;46.934;8.276;2023-06-10T09:54:20;771.97;;;388.48;;
57231;SDS011;43488;46.934;8.276;2023-06-10T09:56:49;784.88;;;383.50;;
57231;SDS011;43488;46.934;8.276;2023-06-10T09:59:28;797.60;;;461.83;;
57231;SDS011;43488;46.934;8.276;2023-06-10T10:01:58;818.88;;;454.25;;
57231;SDS011;43488;46.934;8.276;2023-06-10T10:04:26;809.72;;;461.02;;
57231;SDS011;43488;46.934;8.276;2023-06-10T10:06:55;753.55;;;459.92;;
57231;SDS011;43488;46.934;8.276;2023-06-10T10:09:22;719.78;;;441.90;;
57231;SDS011;43488;46.934;8.276;2023-06-10T10:11:51;815.97;;;401.15;;
57231;SDS011;43488;46.934;8.276;2023-06-10T10:14:20;798.13;;;398.85;;
57231;SDS011;43488;46.934;8.276;2023-06-10T10:16:49;732.78;;;450.13;;
57231;SDS011;43488;46.934;8.276;2023-06-10T10:19:40;748.17;;;462.40;;
57231;SDS011;43488;46.934;8.276;2023-06-10T10:22:26;846.60;;;458.15;;
57231;SDS011;43488;46.934;8.276;2023-06-10T10:25:06;834.85;;;402.83;;
57231;SDS011;43488;46.934;8.276;2023-06-10T10:27:43;869.78;;;454.30;;
57231;SDS011;43488;46.934;8.276;2023-06-10T10:30:17;872.47;;;464.52;;
57231;SDS011;43488;46.934;8.276;2023-06-10T10:35:32;848.97;;;408.30;;
57231;SDS011;43488;46.934;8.276;2023-06-10T10:38:00;879.70;;;456.83;;
57231;SDS011;43488;46.934;8.276;2023-06-10T10:40:29;856.92;;;449.15;;
57231;SDS011;43488;46.934;8.276;2023-06-10T10:42:59;730.92;;;404.27;;
57231;SDS011;43488;46.934;8.276;2023-06-10T10:45:31;804.42;;;406.58;;
57231;SDS011;43488;46.934;8.276;2023-06-10T10:48:10;849.85;;;410.77;;
57231;SDS011;43488;46.934;8.276;2023-06-10T10:50:39;847.40;;;411.52;;
57231;SDS011;43488;46.934;8.276;2023-06-10T10:53:06;824.13;;;396.65;;
57231;SDS011;43488;46.934;8.276;2023-06-10T10:55:34;781.83;;;459.55;;
57231;SDS011;43488;46.934;8.276;2023-06-10T10:58:07;825.08;;;401.15;;
57231;SDS011;43488;46.934;8.276;2023-06-10T11:00:43;647.20;;;396.38;;
57231;SDS011;43488;46.934;8.276;2023-06-10T11:03:15;668.10;;;411.00;;
57231;SDS011;43488;46.934;8.276;2023-06-10T11:05:44;715.55;;;469.27;;
57231;SDS011;43488;46.934;8.276;2023-06-10T11:11:00;751.97;;;460.73;;
57231;SDS011;43488;46.934;8.276;2023-06-10T11:13:27;752.42;;;465.85;;
57231;SDS011;43488;46.934;8.276;2023-06-10T11:15:56;731.83;;;417.75;;
57231;SDS011;43488;46.934;8.276;2023-06-10T11:18:25;733.50;;;456.52;;
57231;SDS011;43488;46.934;8.276;2023-06-10T11:20:56;711.63;;;467.17;;
57231;SDS011;43488;46.934;8.276;2023-06-10T11:31:29;797.55;;;422.73;;
57231;SDS011;43488;46.934;8.276;2023-06-10T11:34:00;827.45;;;412.20;;
57231;SDS011;43488;46.934;8.276;2023-06-10T11:36:34;845.95;;;428.95;;
57231;SDS011;43488;46.934;8.276;2023-06-10T11:39:06;774.75;;;458.40;;
57231;SDS011;43488;46.934;8.276;2023-06-10T11:41:35;770.20;;;427.35;;
57231;SDS011;43488;46.934;8.276;2023-06-10T11:44:14;745.08;;;429.55;;
57231;SDS011;43488;46.934;8.276;2023-06-10T11:46:41;735.95;;;441.40;;
57231;SDS011;43488;46.934;8.276;2023-06-10T11:49:09;739.97;;;472.60;;
57231;SDS011;43488;46.934;8.276;2023-06-10T11:51:40;757.67;;;430.80;;
57231;SDS011;43488;46.934;8.276;2023-06-10T11:54:11;682.25;;;441.55;;
57231;SDS011;43488;46.934;8.276;2023-06-10T11:56:38;690.97;;;445.63;;
57231;SDS011;43488;46.934;8.276;2023-06-10T11:59:06;750.88;;;480.80;;
57231;SDS011;43488;46.934;8.276;2023-06-10T12:01:34;683.75;;;436.77;;
57231;SDS011;43488;46.934;8.276;2023-06-10T12:04:05;676.50;;;481.80;;
57231;SDS011;43488;46.934;8.276;2023-06-10T12:06:38;686.90;;;482.48;;
57231;SDS011;43488;46.934;8.276;2023-06-10T12:09:06;662.00;;;430.45;;
57231;SDS011;43488;46.934;8.276;2023-06-10T12:11:48;692.83;;;487.85;;
57231;SDS011;43488;46.934;8.276;2023-06-10T12:17:21;698.50;;;449.48;;
57231;SDS011;43488;46.934;8.276;2023-06-10T12:20:27;699.67;;;431.50;;
57231;SDS011;43488;46.934;8.276;2023-06-10T12:22:56;700.20;;;435.13;;
57231;SDS011;43488;46.934;8.276;2023-06-10T12:25:30;709.83;;;446.13;;
57231;SDS011;43488;46.934;8.276;2023-06-10T12:27:58;719.65;;;480.80;;
57231;SDS011;43488;46.934;8.276;2023-06-10T12:30:27;699.50;;;478.42;;
57231;SDS011;43488;46.934;8.276;2023-06-10T12:32:55;695.78;;;485.42;;
57231;SDS011;43488;46.934;8.276;2023-06-10T12:35:24;679.65;;;442.98;;
57231;SDS011;43488;46.934;8.276;2023-06-10T12:38:03;689.20;;;444.40;;
57231;SDS011;43488;46.934;8.276;2023-06-10T12:43:08;697.47;;;434.15;;
57231;SDS011;43488;46.934;8.276;2023-06-10T12:45:36;708.88;;;487.48;;
57231;SDS011;43488;46.934;8.276;2023-06-10T12:48:18;678.53;;;446.17;;
57231;SDS011;43488;46.934;8.276;2023-06-10T12:50:56;651.63;;;478.38;;
57231;SDS011;43488;46.934;8.276;2023-06-10T12:53:24;704.13;;;430.23;;
57231;SDS011;43488;46.934;8.276;2023-06-10T12:55:55;823.85;;;429.50;;
57231;SDS011;43488;46.934;8.276;2023-06-10T12:58:24;837.08;;;461.35;;
57231;SDS011;43488;46.934;8.276;2023-06-10T13:00:51;875.35;;;486.02;;
57231;SDS011;43488;46.934;8.276;2023-06-10T13:03:23;879.45;;;501.38;;
57231;SDS011;43488;46.934;8.276;2023-06-10T13:05:50;882.05;;;503.15;;
57231;SDS011;43488;46.934;8.276;2023-06-10T13:08:17;806.45;;;481.63;;
57231;SDS011;43488;46.934;8.276;2023-06-10T13:10:45;905.53;;;537.28;;
57231;SDS011;43488;46.934;8.276;2023-06-10T13:13:13;901.42;;;542.53;;
57231;SDS011;43488;46.934;8.276;2023-06-10T13:15:40;662.55;;;438.67;;
57231;SDS011;43488;46.934;8.276;2023-06-10T13:18:08;661.25;;;502.48;;
57231;SDS011;43488;46.934;8.276;2023-06-10T13:20:36;895.95;;;487.38;;
57231;SDS011;43488;46.934;8.276;2023-06-10T13:23:03;904.92;;;504.50;;
57231;SDS011;43488;46.934;8.276;2023-06-10T13:25:31;935.72;;;561.15;;
57231;SDS011;43488;46.934;8.276;2023-06-10T13:27:58;970.53;;;586.13;;
57231;SDS011;43488;46.934;8.276;2023-06-10T13:30:26;932.55;;;580.30;;
57231;SDS011;43488;46.934;8.276;2023-06-10T13:32:53;922.33;;;566.78;;
57231;SDS011;43488;46.934;8.276;2023-06-10T13:35:21;920.10;;;572.75;;
57231;SDS011;43488;46.934;8.276;2023-06-10T13:37:48;933.80;;;593.78;;
57231;SDS011;43488;46.934;8.276;2023-06-10T13:40:16;956.60;;;549.97;;
57231;SDS011;43488;46.934;8.276;2023-06-10T13:42:46;871.90;;;486.55;;
57231;SDS011;43488;46.934;8.276;2023-06-10T13:45:17;926.78;;;540.22;;
57231;SDS011;43488;46.934;8.276;2023-06-10T13:47:45;926.72;;;544.88;;
57231;SDS011;43488;46.934;8.276;2023-06-10T13:50:13;886.30;;;511.73;;
57231;SDS011;43488;46.934;8.276;2023-06-10T13:52:40;948.78;;;562.72;;
57231;SDS011;43488;46.934;8.276;2023-06-10T13:55:07;897.10;;;534.90;;
57231;SDS011;43488;46.934;8.276;2023-06-10T13:57:35;952.80;;;571.00;;
57231;SDS011;43488;46.934;8.276;2023-06-10T14:00:02;953.67;;;556.83;;
57231;SDS011;43488;46.934;8.276;2023-06-10T14:02:33;904.50;;;543.90;;
57231;SDS011;43488;46.934;8.276;2023-06-10T14:05:01;952.35;;;566.75;;
57231;SDS011;43488;46.934;8.276;2023-06-10T14:07:28;903.42;;;548.90;;
57231;SDS011;43488;46.934;8.276;2023-06-10T14:09:56;901.80;;;531.45;;
57231;SDS011;43488;46.934;8.276;2023-06-10T14:12:23;905.80;;;563.15;;
57231;SDS011;43488;46.934;8.276;2023-06-10T14:14:51;958.63;;;569.45;;
57231;SDS011;43488;46.934;8.276;2023-06-10T14:17:19;907.92;;;566.97;;
57231;SDS011;43488;46.934;8.276;2023-06-10T14:19:46;960.05;;;564.22;;
57231;SDS011;43488;46.934;8.276;2023-06-10T14:22:14;903.28;;;556.67;;
57231;SDS011;43488;46.934;8.276;2023-06-10T14:24:42;954.53;;;563.22;;
57231;SDS011;43488;46.934;8.276;2023-06-10T14:27:11;904.17;;;559.38;;
57231;SDS011;43488;46.934;8.276;2023-06-10T14:29:39;907.38;;;550.10;;
57231;SDS011;43488;46.934;8.276;2023-06-10T14:32:07;947.90;;;551.17;;